sensor_id;sensor_type;location;lat;lon;timestamp;pressure;altitude;pressure_sealevel;temperature;humidity
71697;BME280;68167;59.120;37.898;2023-04-06T00:00:05;101324.78;;;1.23;76.63
71697;BME280;68167;59.120;37.898;2023-04-06T00:02:36;101268.91;;;0.88;76.23
71697;BME280;68167;59.120;37.898;2023-04-06T00:05:02;101266.28;;;0.88;75.82
71697;BME280;68167;59.120;37.898;2023-04-06T00:07:29;101294.19;;;0.97;75.91
71697;BME280;68167;59.120;37.898;2023-04-06T00:09:55;101339.22;;;1.27;76.16
71697;BME280;68167;59.120;37.898;2023-04-06T00:12:22;101340.53;;;1.23;75.87
71697;BME280;68167;59.120;37.898;2023-04-06T00:14:48;101333.28;;;1.17;76.61
71697;BME280;68167;59.120;37.898;2023-04-06T00:17:14;101299.06;;;0.92;75.92
71697;BME280;68167;59.120;37.898;2023-04-06T00:19:41;101327.84;;;1.10;75.94
71697;BME280;68167;59.120;37.898;2023-04-06T00:22:08;101344.44;;;1.19;75.99
71697;BME280;68167;59.120;37.898;2023-04-06T00:24:34;101361.66;;;1.21;76.34
71697;BME280;68167;59.120;37.898;2023-04-06T00:27:01;101360.00;;;1.20;76.20
71697;BME280;68167;59.120;37.898;2023-04-06T00:29:27;101358.22;;;1.21;75.64
71697;BME280;68167;59.120;37.898;2023-04-06T00:31:53;101294.91;;;0.82;76.00
71697;BME280;68167;59.120;37.898;2023-04-06T00:34:20;101357.72;;;1.17;75.84
71697;BME280;68167;59.120;37.898;2023-04-06T00:36:46;101331.88;;;0.96;75.87
71697;BME280;68167;59.120;37.898;2023-04-06T00:39:13;101365.72;;;1.16;75.75
71697;BME280;68167;59.120;37.898;2023-04-06T00:41:45;101277.13;;;0.59;75.46
71697;BME280;68167;59.120;37.898;2023-04-06T00:44:12;101367.00;;;1.12;75.98
71697;BME280;68167;59.120;37.898;2023-04-06T00:46:39;101283.19;;;0.60;75.77
71697;BME280;68167;59.120;37.898;2023-04-06T00:49:05;101351.56;;;1.01;75.56
71697;BME280;68167;59.120;37.898;2023-04-06T00:51:31;101346.94;;;0.94;75.76
71697;BME280;68167;59.120;37.898;2023-04-06T00:53:58;101362.19;;;0.99;75.75
71697;BME280;68167;59.120;37.898;2023-04-06T00:56:25;101362.69;;;1.03;75.29
71697;BME280;68167;59.120;37.898;2023-04-06T00:58:53;101377.16;;;1.07;75.65
71697;BME280;68167;59.120;37.898;2023-04-06T01:01:20;101347.91;;;0.93;75.51
71697;BME280;68167;59.120;37.898;2023-04-06T01:03:48;101293.16;;;0.56;75.59
71697;BME280;68167;59.120;37.898;2023-04-06T01:06:17;101309.25;;;0.61;75.79
71697;BME280;68167;59.120;37.898;2023-04-06T01:08:47;101372.16;;;0.95;75.88
71697;BME280;68167;59.120;37.898;2023-04-06T01:11:20;101372.63;;;0.91;75.84
71697;BME280;68167;59.120;37.898;2023-04-06T01:13:48;101354.88;;;0.85;75.18
71697;BME280;68167;59.120;37.898;2023-04-06T01:16:25;101379.66;;;0.90;75.32
71697;BME280;68167;59.120;37.898;2023-04-06T01:19:12;101353.19;;;0.76;75.40
71697;BME280;68167;59.120;37.898;2023-04-06T01:21:44;101372.41;;;0.84;75.32
71697;BME280;68167;59.120;37.898;2023-04-06T01:24:13;101380.59;;;0.81;75.01
71697;BME280;68167;59.120;37.898;2023-04-06T01:27:00;101305.09;;;0.33;75.18
71697;BME280;68167;59.120;37.898;2023-04-06T01:29:34;101313.78;;;0.33;75.17
71697;BME280;68167;59.120;37.898;2023-04-06T01:32:03;101380.69;;;0.72;75.49
71697;BME280;68167;59.120;37.898;2023-04-06T01:34:34;101370.50;;;0.69;75.16
71697;BME280;68167;59.120;37.898;2023-04-06T01:37:03;101307.66;;;0.25;75.15
71697;BME280;68167;59.120;37.898;2023-04-06T01:39:31;101251.84;;;-0.19;75.19
71697;BME280;68167;59.120;37.898;2023-04-06T01:42:00;101308.56;;;0.16;75.03
71697;BME280;68167;59.120;37.898;2023-04-06T01:44:27;101396.53;;;0.62;75.59
71697;BME280;68167;59.120;37.898;2023-04-06T01:47:05;101387.47;;;0.56;75.14
71697;BME280;68167;59.120;37.898;2023-04-06T01:49:32;101362.63;;;0.43;75.34
71697;BME280;68167;59.120;37.898;2023-04-06T01:51:58;101321.66;;;0.16;74.49
71697;BME280;68167;59.120;37.898;2023-04-06T01:54:25;101370.34;;;0.44;75.17
71697;BME280;68167;59.120;37.898;2023-04-06T01:56:59;101371.97;;;0.45;75.41
71697;BME280;68167;59.120;37.898;2023-04-06T01:59:38;101389.88;;;0.50;75.33
71697;BME280;68167;59.120;37.898;2023-04-06T02:02:11;101343.78;;;0.21;74.70
71697;BME280;68167;59.120;37.898;2023-04-06T02:04:40;101397.44;;;0.53;74.69
71697;BME280;68167;59.120;37.898;2023-04-06T02:07:10;101387.19;;;0.42;75.26
71697;BME280;68167;59.120;37.898;2023-04-06T02:09:37;101314.50;;;0.00;74.74
71697;BME280;68167;59.120;37.898;2023-04-06T02:12:06;101324.16;;;-0.01;75.05
71697;BME280;68167;59.120;37.898;2023-04-06T02:14:34;101333.47;;;0.02;75.18
71697;BME280;68167;59.120;37.898;2023-04-06T02:17:01;101364.06;;;0.19;74.79
71697;BME280;68167;59.120;37.898;2023-04-06T02:19:27;101397.81;;;0.40;75.08
71697;BME280;68167;59.120;37.898;2023-04-06T02:21:54;101394.13;;;0.33;74.74
71697;BME280;68167;59.120;37.898;2023-04-06T02:24:21;101393.63;;;0.29;75.09
71697;BME280;68167;59.120;37.898;2023-04-06T02:26:47;101407.09;;;0.35;74.92
71697;BME280;68167;59.120;37.898;2023-04-06T02:29:14;101308.22;;;-0.25;74.80
71697;BME280;68167;59.120;37.898;2023-04-06T02:31:40;101334.97;;;-0.13;74.38
71697;BME280;68167;59.120;37.898;2023-04-06T02:34:08;101407.59;;;0.38;74.30
71697;BME280;68167;59.120;37.898;2023-04-06T02:36:37;101397.06;;;0.30;74.64
71697;BME280;68167;59.120;37.898;2023-04-06T02:39:04;101348.97;;;-0.05;74.65
71697;BME280;68167;59.120;37.898;2023-04-06T02:41:31;101390.63;;;0.24;74.05
71697;BME280;68167;59.120;37.898;2023-04-06T02:43:59;101420.03;;;0.36;74.51
71697;BME280;68167;59.120;37.898;2023-04-06T02:46:37;101397.28;;;0.19;74.56
71697;BME280;68167;59.120;37.898;2023-04-06T02:49:03;101345.81;;;-0.08;74.71
71697;BME280;68167;59.120;37.898;2023-04-06T02:51:33;101423.47;;;0.37;74.59
71697;BME280;68167;59.120;37.898;2023-04-06T02:54:11;101442.78;;;0.36;73.98
71697;BME280;68167;59.120;37.898;2023-04-06T02:56:38;101402.28;;;0.12;73.98
71697;BME280;68167;59.120;37.898;2023-04-06T02:59:05;101432.44;;;0.34;74.31
71697;BME280;68167;59.120;37.898;2023-04-06T03:01:35;101435.88;;;0.35;74.42
71697;BME280;68167;59.120;37.898;2023-04-06T03:04:05;101386.97;;;-0.01;74.30
71697;BME280;68167;59.120;37.898;2023-04-06T03:06:32;101396.00;;;0.05;73.86
71697;BME280;68167;59.120;37.898;2023-04-06T03:09:06;101361.97;;;-0.13;73.67
71697;BME280;68167;59.120;37.898;2023-04-06T03:11:33;101438.94;;;0.30;74.03
71697;BME280;68167;59.120;37.898;2023-04-06T03:14:00;101432.06;;;0.29;74.07
71697;BME280;68167;59.120;37.898;2023-04-06T03:16:27;101412.00;;;0.20;73.46
71697;BME280;68167;59.120;37.898;2023-04-06T03:18:53;101441.81;;;0.37;74.10
71697;BME280;68167;59.120;37.898;2023-04-06T03:21:21;101433.78;;;0.38;74.22
71697;BME280;68167;59.120;37.898;2023-04-06T03:23:50;101402.13;;;0.14;73.75
71697;BME280;68167;59.120;37.898;2023-04-06T03:26:17;101420.47;;;0.31;73.69
71697;BME280;68167;59.120;37.898;2023-04-06T03:28:44;101344.91;;;-0.17;73.26
71697;BME280;68167;59.120;37.898;2023-04-06T03:31:11;101359.88;;;-0.09;73.77
71697;BME280;68167;59.120;37.898;2023-04-06T03:34:04;101438.50;;;0.35;73.53
71697;BME280;68167;59.120;37.898;2023-04-06T03:36:34;101455.56;;;0.39;73.64
71697;BME280;68167;59.120;37.898;2023-04-06T03:39:03;101426.69;;;0.30;73.69
71697;BME280;68167;59.120;37.898;2023-04-06T03:41:32;101433.56;;;0.31;73.26
71697;BME280;68167;59.120;37.898;2023-04-06T03:44:15;101301.06;;;-0.50;73.04
71697;BME280;68167;59.120;37.898;2023-04-06T03:46:44;101446.22;;;0.36;73.07
71697;BME280;68167;59.120;37.898;2023-04-06T03:49:11;101439.31;;;0.35;73.27
71697;BME280;68167;59.120;37.898;2023-04-06T03:51:39;101376.78;;;-0.04;72.93
71697;BME280;68167;59.120;37.898;2023-04-06T03:54:05;101448.09;;;0.44;73.10
71697;BME280;68167;59.120;37.898;2023-04-06T03:56:32;101367.44;;;-0.06;72.73
71697;BME280;68167;59.120;37.898;2023-04-06T03:58:59;101473.00;;;0.48;72.67
71697;BME280;68167;59.120;37.898;2023-04-06T04:01:25;101448.91;;;0.44;72.67
71697;BME280;68167;59.120;37.898;2023-04-06T04:03:53;101451.09;;;0.49;72.65
71697;BME280;68167;59.120;37.898;2023-04-06T04:06:19;101442.56;;;0.47;72.59
71697;BME280;68167;59.120;37.898;2023-04-06T04:08:46;101453.56;;;0.50;72.14
71697;BME280;68167;59.120;37.898;2023-04-06T04:11:12;101460.00;;;0.56;72.86
71697;BME280;68167;59.120;37.898;2023-04-06T04:13:39;101395.47;;;0.19;72.23
71697;BME280;68167;59.120;37.898;2023-04-06T04:16:07;101458.28;;;0.64;72.48
71697;BME280;68167;59.120;37.898;2023-04-06T04:18:35;101450.72;;;0.61;72.16
71697;BME280;68167;59.120;37.898;2023-04-06T04:21:02;101454.72;;;0.74;71.93
71697;BME280;68167;59.120;37.898;2023-04-06T04:23:29;101474.47;;;0.86;72.24
71697;BME280;68167;59.120;37.898;2023-04-06T04:25:58;101464.28;;;0.83;71.75
71697;BME280;68167;59.120;37.898;2023-04-06T04:28:30;101466.31;;;0.89;71.68
71697;BME280;68167;59.120;37.898;2023-04-06T04:30:59;101475.53;;;0.93;71.37
71697;BME280;68167;59.120;37.898;2023-04-06T04:33:28;101480.00;;;1.01;71.00
71697;BME280;68167;59.120;37.898;2023-04-06T04:35:57;101479.84;;;1.02;70.67
71697;BME280;68167;59.120;37.898;2023-04-06T04:38:26;101441.75;;;0.72;71.01
71697;BME280;68167;59.120;37.898;2023-04-06T04:40:55;101414.34;;;0.58;70.85
71697;BME280;68167;59.120;37.898;2023-04-06T04:43:22;101422.09;;;0.68;70.77
71697;BME280;68167;59.120;37.898;2023-04-06T04:45:49;101407.97;;;0.61;70.78
71697;BME280;68167;59.120;37.898;2023-04-06T04:48:34;101462.41;;;0.93;70.40
71697;BME280;68167;59.120;37.898;2023-04-06T04:51:04;101496.53;;;1.19;70.14
71697;BME280;68167;59.120;37.898;2023-04-06T04:53:42;101386.13;;;0.52;69.92
71697;BME280;68167;59.120;37.898;2023-04-06T04:56:19;101481.25;;;1.14;70.26
71697;BME280;68167;59.120;37.898;2023-04-06T04:58:48;101477.34;;;1.18;70.26
71697;BME280;68167;59.120;37.898;2023-04-06T05:01:14;101399.53;;;0.75;69.74
71697;BME280;68167;59.120;37.898;2023-04-06T05:03:42;101425.34;;;0.88;70.09
71697;BME280;68167;59.120;37.898;2023-04-06T05:06:13;101432.44;;;0.95;69.95
71697;BME280;68167;59.120;37.898;2023-04-06T05:08:41;101485.63;;;1.31;70.31
71697;BME280;68167;59.120;37.898;2023-04-06T05:11:08;101503.25;;;1.47;69.74
71697;BME280;68167;59.120;37.898;2023-04-06T05:13:39;101508.16;;;1.42;69.67
71697;BME280;68167;59.120;37.898;2023-04-06T05:16:11;101491.78;;;1.48;69.57
71697;BME280;68167;59.120;37.898;2023-04-06T05:18:38;101472.34;;;1.33;69.53
71697;BME280;68167;59.120;37.898;2023-04-06T05:21:06;101515.47;;;1.56;69.10
71697;BME280;68167;59.120;37.898;2023-04-06T05:23:50;101499.19;;;1.53;69.01
71697;BME280;68167;59.120;37.898;2023-04-06T05:26:16;101416.84;;;1.12;69.24
71697;BME280;68167;59.120;37.898;2023-04-06T05:28:43;101497.28;;;1.63;68.63
71697;BME280;68167;59.120;37.898;2023-04-06T05:31:11;101509.94;;;1.68;69.06
71697;BME280;68167;59.120;37.898;2023-04-06T05:33:45;101513.94;;;1.80;69.17
71697;BME280;68167;59.120;37.898;2023-04-06T05:36:15;101513.31;;;1.86;69.01
71697;BME280;68167;59.120;37.898;2023-04-06T05:38:44;101508.94;;;1.94;68.61
71697;BME280;68167;59.120;37.898;2023-04-06T05:41:20;101525.38;;;2.05;68.64
71697;BME280;68167;59.120;37.898;2023-04-06T05:43:47;101479.34;;;1.84;68.41
71697;BME280;68167;59.120;37.898;2023-04-06T05:46:13;101500.25;;;2.02;68.04
71697;BME280;68167;59.120;37.898;2023-04-06T05:48:39;101485.63;;;1.91;68.13
71697;BME280;68167;59.120;37.898;2023-04-06T05:51:07;101522.00;;;2.28;67.70
71697;BME280;68167;59.120;37.898;2023-04-06T05:53:42;101512.84;;;2.33;67.89
71697;BME280;68167;59.120;37.898;2023-04-06T05:56:09;101504.75;;;2.26;67.61
71697;BME280;68167;59.120;37.898;2023-04-06T05:58:35;101531.09;;;2.42;67.77
71697;BME280;68167;59.120;37.898;2023-04-06T06:01:02;101493.47;;;2.34;67.53
71697;BME280;68167;59.120;37.898;2023-04-06T06:03:37;101534.59;;;2.59;67.56
71697;BME280;68167;59.120;37.898;2023-04-06T06:06:04;101512.56;;;2.60;66.60
71697;BME280;68167;59.120;37.898;2023-04-06T06:08:40;101522.94;;;2.78;67.34
71697;BME280;68167;59.120;37.898;2023-04-06T06:11:12;101475.75;;;2.52;67.17
71697;BME280;68167;59.120;37.898;2023-04-06T06:13:39;101522.78;;;2.95;66.52
71697;BME280;68167;59.120;37.898;2023-04-06T06:16:05;101446.84;;;2.52;65.84
71697;BME280;68167;59.120;37.898;2023-04-06T06:18:34;101474.59;;;2.71;65.75
71697;BME280;68167;59.120;37.898;2023-04-06T06:21:04;101509.97;;;3.01;66.44
71697;BME280;68167;59.120;37.898;2023-04-06T06:23:31;101453.91;;;2.76;66.15
71697;BME280;68167;59.120;37.898;2023-04-06T06:25:57;101509.81;;;3.18;65.35
71697;BME280;68167;59.120;37.898;2023-04-06T06:28:25;101528.50;;;3.40;65.40
71697;BME280;68167;59.120;37.898;2023-04-06T06:30:52;101468.69;;;3.09;65.15
71697;BME280;68167;59.120;37.898;2023-04-06T06:33:22;101527.81;;;3.54;64.40
71697;BME280;68167;59.120;37.898;2023-04-06T06:35:51;101447.00;;;3.15;64.98
71697;BME280;68167;59.120;37.898;2023-04-06T06:38:17;101510.84;;;3.64;64.45
71697;BME280;68167;59.120;37.898;2023-04-06T06:40:46;101452.69;;;3.35;63.42
71697;BME280;68167;59.120;37.898;2023-04-06T06:43:13;101522.34;;;3.80;62.50
71697;BME280;68167;59.120;37.898;2023-04-06T06:45:54;101521.66;;;3.86;62.82
71697;BME280;68167;59.120;37.898;2023-04-06T06:48:21;101520.34;;;3.90;62.21
71697;BME280;68167;59.120;37.898;2023-04-06T06:50:48;101513.88;;;3.92;62.57
71697;BME280;68167;59.120;37.898;2023-04-06T06:53:14;101464.41;;;3.80;62.64
71697;BME280;68167;59.120;37.898;2023-04-06T06:55:41;101469.91;;;3.93;62.06
71697;BME280;68167;59.120;37.898;2023-04-06T06:58:10;101509.25;;;4.34;62.97
71697;BME280;68167;59.120;37.898;2023-04-06T07:00:37;101513.97;;;4.46;62.04
71697;BME280;68167;59.120;37.898;2023-04-06T07:03:04;101513.38;;;4.59;61.09
71697;BME280;68167;59.120;37.898;2023-04-06T07:05:30;101520.53;;;4.73;61.03
71697;BME280;68167;59.120;37.898;2023-04-06T07:07:58;101514.22;;;4.82;60.52
71697;BME280;68167;59.120;37.898;2023-04-06T07:10:25;101512.44;;;4.97;60.44
71697;BME280;68167;59.120;37.898;2023-04-06T07:12:52;101453.94;;;4.71;59.47
71697;BME280;68167;59.120;37.898;2023-04-06T07:15:18;101453.88;;;4.79;59.37
71697;BME280;68167;59.120;37.898;2023-04-06T07:17:44;101486.72;;;5.00;59.76
71697;BME280;68167;59.120;37.898;2023-04-06T07:20:12;101458.03;;;4.96;59.74
71697;BME280;68167;59.120;37.898;2023-04-06T07:22:39;101505.34;;;5.36;59.28
71697;BME280;68167;59.120;37.898;2023-04-06T07:25:06;101498.31;;;5.28;56.67
71697;BME280;68167;59.120;37.898;2023-04-06T07:27:33;101491.56;;;5.25;57.38
71697;BME280;68167;59.120;37.898;2023-04-06T07:30:00;101494.50;;;5.30;57.73
71697;BME280;68167;59.120;37.898;2023-04-06T07:32:26;101491.50;;;5.34;57.42
71697;BME280;68167;59.120;37.898;2023-04-06T07:34:53;101514.81;;;5.45;56.84
71697;BME280;68167;59.120;37.898;2023-04-06T07:37:19;101477.53;;;5.25;56.22
71697;BME280;68167;59.120;37.898;2023-04-06T07:39:46;101505.78;;;5.39;55.59
71697;BME280;68167;59.120;37.898;2023-04-06T07:42:12;101504.63;;;5.42;56.28
71697;BME280;68167;59.120;37.898;2023-04-06T07:44:39;101499.50;;;5.40;55.26
71697;BME280;68167;59.120;37.898;2023-04-06T07:47:05;101515.63;;;5.45;55.79
71697;BME280;68167;59.120;37.898;2023-04-06T07:49:32;101503.16;;;5.39;55.32
71697;BME280;68167;59.120;37.898;2023-04-06T07:52:00;101496.44;;;5.51;55.89
71697;BME280;68167;59.120;37.898;2023-04-06T07:54:29;101497.34;;;5.58;54.83
71697;BME280;68167;59.120;37.898;2023-04-06T07:56:55;101431.38;;;5.21;54.28
71697;BME280;68167;59.120;37.898;2023-04-06T07:59:21;101437.69;;;5.20;55.08
71697;BME280;68167;59.120;37.898;2023-04-06T08:01:48;101501.09;;;5.64;54.99
71697;BME280;68167;59.120;37.898;2023-04-06T08:04:14;101515.59;;;5.68;53.71
71697;BME280;68167;59.120;37.898;2023-04-06T08:06:41;101510.47;;;5.67;53.84
71697;BME280;68167;59.120;37.898;2023-04-06T08:09:07;101508.09;;;5.72;54.48
71697;BME280;68167;59.120;37.898;2023-04-06T08:11:33;101486.53;;;5.68;54.41
71697;BME280;68167;59.120;37.898;2023-04-06T08:14:00;101491.16;;;5.81;54.70
71697;BME280;68167;59.120;37.898;2023-04-06T08:16:26;101444.88;;;5.55;53.83
71697;BME280;68167;59.120;37.898;2023-04-06T08:18:52;101458.47;;;5.67;52.84
71697;BME280;68167;59.120;37.898;2023-04-06T08:21:19;101466.22;;;5.69;52.18
71697;BME280;68167;59.120;37.898;2023-04-06T08:23:45;101431.22;;;5.52;53.21
71697;BME280;68167;59.120;37.898;2023-04-06T08:26:12;101506.75;;;6.05;52.94
71697;BME280;68167;59.120;37.898;2023-04-06T08:28:38;101502.53;;;6.11;52.18
71697;BME280;68167;59.120;37.898;2023-04-06T08:31:05;101499.59;;;6.20;51.59
71697;BME280;68167;59.120;37.898;2023-04-06T08:33:33;101518.84;;;6.29;50.79
71697;BME280;68167;59.120;37.898;2023-04-06T08:36:13;101501.06;;;6.23;52.27
71697;BME280;68167;59.120;37.898;2023-04-06T08:38:40;101457.78;;;6.09;50.87
71697;BME280;68167;59.120;37.898;2023-04-06T08:41:08;101503.50;;;6.39;51.57
71697;BME280;68167;59.120;37.898;2023-04-06T08:43:48;101490.53;;;6.44;51.69
71697;BME280;68167;59.120;37.898;2023-04-06T08:46:16;101499.59;;;6.56;51.06
71697;BME280;68167;59.120;37.898;2023-04-06T08:48:43;101518.06;;;6.71;50.32
71697;BME280;68167;59.120;37.898;2023-04-06T08:51:10;101502.56;;;6.68;49.78
71697;BME280;68167;59.120;37.898;2023-04-06T08:53:36;101447.94;;;6.39;48.86
71697;BME280;68167;59.120;37.898;2023-04-06T08:56:04;101451.59;;;6.38;49.31
71697;BME280;68167;59.120;37.898;2023-04-06T08:58:35;101507.72;;;6.76;48.88
71697;BME280;68167;59.120;37.898;2023-04-06T09:01:06;101487.31;;;6.70;49.35
71697;BME280;68167;59.120;37.898;2023-04-06T09:03:38;101496.81;;;6.86;48.94
71697;BME280;68167;59.120;37.898;2023-04-06T09:06:06;101495.44;;;6.90;48.89
71697;BME280;68167;59.120;37.898;2023-04-06T09:08:34;101475.22;;;6.82;48.92
71697;BME280;68167;59.120;37.898;2023-04-06T09:11:03;101507.97;;;7.03;48.09
71697;BME280;68167;59.120;37.898;2023-04-06T09:13:30;101494.13;;;7.01;48.47
71697;BME280;68167;59.120;37.898;2023-04-06T09:16:04;101499.84;;;7.04;48.53
71697;BME280;68167;59.120;37.898;2023-04-06T09:18:33;101448.44;;;6.71;47.80
71697;BME280;68167;59.120;37.898;2023-04-06T09:21:04;101505.81;;;7.13;48.01
71697;BME280;68167;59.120;37.898;2023-04-06T09:23:31;101483.81;;;7.12;48.85
71697;BME280;68167;59.120;37.898;2023-04-06T09:28:48;101496.03;;;7.41;47.79
71697;BME280;68167;59.120;37.898;2023-04-06T09:31:17;101490.53;;;7.43;47.18
71697;BME280;68167;59.120;37.898;2023-04-06T09:33:47;101470.50;;;7.34;47.56
71697;BME280;68167;59.120;37.898;2023-04-06T09:36:13;101494.06;;;7.50;46.63
71697;BME280;68167;59.120;37.898;2023-04-06T09:38:57;101499.44;;;7.63;47.18
71697;BME280;68167;59.120;37.898;2023-04-06T09:41:28;101493.31;;;7.63;46.61
71697;BME280;68167;59.120;37.898;2023-04-06T09:44:10;101440.34;;;7.35;46.75
71697;BME280;68167;59.120;37.898;2023-04-06T09:46:41;101451.81;;;7.42;46.12
71697;BME280;68167;59.120;37.898;2023-04-06T09:49:09;101423.03;;;7.32;45.86
71697;BME280;68167;59.120;37.898;2023-04-06T09:51:41;101498.31;;;7.79;45.37
71697;BME280;68167;59.120;37.898;2023-04-06T09:54:08;101485.06;;;7.79;46.06
71697;BME280;68167;59.120;37.898;2023-04-06T09:56:58;101430.97;;;7.67;47.36
71697;BME280;68167;59.120;37.898;2023-04-06T10:02:08;101431.41;;;7.70;44.76
71697;BME280;68167;59.120;37.898;2023-04-06T10:04:59;101492.97;;;8.20;45.40
71697;BME280;68167;59.120;37.898;2023-04-06T10:07:29;101490.78;;;8.30;45.22
71697;BME280;68167;59.120;37.898;2023-04-06T10:09:56;101491.66;;;8.37;44.44
71697;BME280;68167;59.120;37.898;2023-04-06T10:12:23;101485.53;;;8.37;43.99
71697;BME280;68167;59.120;37.898;2023-04-06T10:14:49;101482.06;;;8.43;43.64
71697;BME280;68167;59.120;37.898;2023-04-06T10:17:16;101437.41;;;7.99;43.17
71697;BME280;68167;59.120;37.898;2023-04-06T10:19:46;101502.25;;;8.37;44.15
71697;BME280;68167;59.120;37.898;2023-04-06T10:22:20;101494.72;;;8.41;43.82
71697;BME280;68167;59.120;37.898;2023-04-06T10:24:48;101483.09;;;8.42;44.25
71697;BME280;68167;59.120;37.898;2023-04-06T10:27:15;101483.69;;;8.44;42.36
71697;BME280;68167;59.120;37.898;2023-04-06T10:29:45;101475.31;;;8.40;42.70
71697;BME280;68167;59.120;37.898;2023-04-06T10:32:13;101433.00;;;8.25;42.68
71697;BME280;68167;59.120;37.898;2023-04-06T10:34:40;101468.38;;;8.52;43.27
71697;BME280;68167;59.120;37.898;2023-04-06T10:37:13;101470.03;;;8.60;43.99
71697;BME280;68167;59.120;37.898;2023-04-06T10:39:49;101430.81;;;8.49;44.00
71697;BME280;68167;59.120;37.898;2023-04-06T10:42:24;101467.63;;;8.91;43.77
71697;BME280;68167;59.120;37.898;2023-04-06T10:44:51;101414.91;;;8.75;43.15
71697;BME280;68167;59.120;37.898;2023-04-06T10:47:18;101479.44;;;9.35;43.68
71697;BME280;68167;59.120;37.898;2023-04-06T10:49:44;101474.28;;;9.67;43.56
71697;BME280;68167;59.120;37.898;2023-04-06T10:52:11;101483.59;;;9.89;43.20
71697;BME280;68167;59.120;37.898;2023-04-06T10:54:42;101489.88;;;10.08;43.22
71697;BME280;68167;59.120;37.898;2023-04-06T10:57:12;101481.03;;;10.20;42.46
71697;BME280;68167;59.120;37.898;2023-04-06T10:59:42;101477.63;;;10.45;41.57
71697;BME280;68167;59.120;37.898;2023-04-06T11:02:19;101453.00;;;10.49;42.15
71697;BME280;68167;59.120;37.898;2023-04-06T11:04:56;101469.22;;;10.79;41.41
71697;BME280;68167;59.120;37.898;2023-04-06T11:07:24;101433.97;;;10.77;41.31
71697;BME280;68167;59.120;37.898;2023-04-06T11:09:51;101465.53;;;11.23;41.00
71697;BME280;68167;59.120;37.898;2023-04-06T11:12:26;101482.69;;;11.52;40.11
71697;BME280;68167;59.120;37.898;2023-04-06T11:15:00;101469.59;;;11.69;40.09
71697;BME280;68167;59.120;37.898;2023-04-06T11:17:32;101419.22;;;11.61;39.17
71697;BME280;68167;59.120;37.898;2023-04-06T11:19:58;101365.88;;;11.43;37.90
71697;BME280;68167;59.120;37.898;2023-04-06T11:22:25;101408.53;;;11.79;37.64
71697;BME280;68167;59.120;37.898;2023-04-06T11:24:52;101469.72;;;12.41;38.23
71697;BME280;68167;59.120;37.898;2023-04-06T11:27:19;101457.81;;;12.55;37.00
71697;BME280;68167;59.120;37.898;2023-04-06T11:29:46;101462.59;;;12.65;36.64
71697;BME280;68167;59.120;37.898;2023-04-06T11:32:21;101465.88;;;12.78;36.81
71697;BME280;68167;59.120;37.898;2023-04-06T11:34:48;101456.66;;;12.63;35.71
71697;BME280;68167;59.120;37.898;2023-04-06T11:37:14;101460.41;;;12.73;35.38
71697;BME280;68167;59.120;37.898;2023-04-06T11:39:49;101439.72;;;12.69;36.65
71697;BME280;68167;59.120;37.898;2023-04-06T11:42:27;101435.22;;;12.93;37.03
71697;BME280;68167;59.120;37.898;2023-04-06T11:44:55;101393.97;;;12.89;35.28
71697;BME280;68167;59.120;37.898;2023-04-06T11:47:33;101448.97;;;13.31;34.50
71697;BME280;68167;59.120;37.898;2023-04-06T11:50:07;101438.03;;;13.21;36.06
71697;BME280;68167;59.120;37.898;2023-04-06T11:52:34;101430.81;;;13.45;35.44
71697;BME280;68167;59.120;37.898;2023-04-06T11:55:14;101397.00;;;13.27;34.00
71697;BME280;68167;59.120;37.898;2023-04-06T11:57:42;101441.16;;;13.53;33.85
71697;BME280;68167;59.120;37.898;2023-04-06T12:00:09;101397.59;;;13.17;33.35
71697;BME280;68167;59.120;37.898;2023-04-06T12:02:36;101400.13;;;12.89;32.46
71697;BME280;68167;59.120;37.898;2023-04-06T12:05:04;101439.88;;;12.97;33.34
71697;BME280;68167;59.120;37.898;2023-04-06T12:07:31;101447.56;;;12.94;32.96
71697;BME280;68167;59.120;37.898;2023-04-06T12:09:59;101420.69;;;12.89;34.20
71697;BME280;68167;59.120;37.898;2023-04-06T12:12:25;101422.66;;;13.05;34.21
71697;BME280;68167;59.120;37.898;2023-04-06T12:14:52;101411.28;;;12.98;32.54
71697;BME280;68167;59.120;37.898;2023-04-06T12:17:19;101414.75;;;13.10;33.19
71697;BME280;68167;59.120;37.898;2023-04-06T12:19:46;101394.44;;;12.97;34.30
71697;BME280;68167;59.120;37.898;2023-04-06T12:22:12;101439.19;;;13.37;32.67
71697;BME280;68167;59.120;37.898;2023-04-06T12:24:39;101431.66;;;13.22;32.45
71697;BME280;68167;59.120;37.898;2023-04-06T12:27:06;101378.28;;;12.80;32.72
71697;BME280;68167;59.120;37.898;2023-04-06T12:29:32;101324.25;;;12.55;33.08
71697;BME280;68167;59.120;37.898;2023-04-06T12:31:59;101421.06;;;13.27;32.76
71697;BME280;68167;59.120;37.898;2023-04-06T12:34:27;101392.22;;;13.17;33.90
71697;BME280;68167;59.120;37.898;2023-04-06T12:36:53;101426.53;;;13.32;32.49
71697;BME280;68167;59.120;37.898;2023-04-06T12:39:19;101408.03;;;12.84;32.15
71697;BME280;68167;59.120;37.898;2023-04-06T12:41:47;101350.50;;;12.35;32.00
71697;BME280;68167;59.120;37.898;2023-04-06T12:44:13;101418.63;;;12.91;32.30
71697;BME280;68167;59.120;37.898;2023-04-06T12:46:40;101414.19;;;13.08;32.57
71697;BME280;68167;59.120;37.898;2023-04-06T12:49:06;101387.78;;;13.11;31.93
71697;BME280;68167;59.120;37.898;2023-04-06T12:51:33;101372.56;;;13.12;32.94
71697;BME280;68167;59.120;37.898;2023-04-06T12:53:59;101400.47;;;13.28;31.33
71697;BME280;68167;59.120;37.898;2023-04-06T12:56:25;101342.47;;;13.16;31.38
71697;BME280;68167;59.120;37.898;2023-04-06T12:58:52;101402.44;;;14.12;31.77
71697;BME280;68167;59.120;37.898;2023-04-06T13:01:19;101359.34;;;14.31;31.43